CYZF

Yellowknife Airport

Yellowknife, Northwest Territories, Canada
METAR CYZF 170257Z 11013KT 15SM -SN BKN040 OVC063 M04/M07 A2997 RMK SC5SC3 SLP170
Observed Flight Rules
Oct-17 @ 02:57 UTC (13 minutes ago) Visual Flight Rules
Wind Visibility Clouds Conditions
110° at 13 knots 15 miles
  • Broken at 4,000' AGL
  • Overcast at 6,300' AGL
  • Light Snow
Temperatures Readings
Current -4°C / 25°F
Dewpoint -7°C / 19°F
Humidity 80%
Altimeter 29.97" Hg
Pressure 1017 hPa
Elevation 206
METAR CYZF 170257Z 11013KT 15SM -SN BKN040 OVC063 M04/M07 A2997 RMK SC5SC3 SLP170
Observed Flight Rules
Oct-17 @ 02:57 UTC
(13 minutes ago)
VFR
Wind Visibility
110° at 13 knots 15 miles
Clouds
  • Broken at 4,000' AGL
  • Overcast at 6,300' AGL
Conditions
  • Light Snow
Temperature Dewpoint
-4°C / 25°F -7°C / 19°F
Humidity Altimeter Pressure
80% 29.97" Hg 1017 hPa